Terminal Aerodrome Forecast
Issued by NWS Austin/San Antonio, TX

Home | Current Version | Previous Version | Text Only | Print | Product List | Glossary On
Versions: 1 2 3 4 5 6 7 8 9 10 11 12 13 14 15 16 17 18 19
000
FTUS44 KEWX 281143
TAFAUS
TAF
KAUS 281143Z 2812/2918 18007KT P6SM SCT015 BKN250
     FM281500 19010KT P6SM BKN020 OVC035
     FM281700 18010KT P6SM BKN035 BKN050
     FM282000 13008KT P6SM VCTS OVC035CB
     FM282300 02010KT 4SM -TSRA BR OVC018CB
     FM290800 01010KT 5SM -SHRA BR OVC010=

USA.gov is the U.S. government's official web portal to all federal, state and local government web resources and services.